Time;durP1;ratioP1;P1;durP2;ratioP2;P2;SDS_P1;SDS_P2;PMS_P1;PMS_P2;Temp;Humidity;BMP_temperature;BMP_pressure;BME280_temperature;BME280_humidity;BME280_pressure;Samples;Min_cycle;Max_cycle;Signal;HPM_P1;HPM_P2
2022/11/23 00:01:28;;;;;;;27.80;18.80;;;9.30;99.90;;;;;;5137476;28;20046;-72
2022/11/23 00:03:56;;;;;;;34.40;19.63;;;9.30;99.90;;;;;;5137217;28;20091;-71
2022/11/23 00:06:23;;;;;;;43.20;22.83;;;9.30;99.90;;;;;;5137238;28;20099;-71
2022/11/23 00:08:50;;;;;;;30.50;18.70;;;9.30;99.90;;;;;;5119520;27;20048;-71
2022/11/23 00:11:16;;;;;;;25.42;18.77;;;9.40;99.90;;;;;;5141240;27;20072;-71
2022/11/23 00:13:42;;;;;;;32.13;18.92;;;9.50;99.90;;;;;;5141499;27;20335;-71
2022/11/23 00:16:14;;;;;;;28.85;19.65;;;9.50;99.90;;;;;;5123284;27;20049;-71
2022/11/23 00:18:39;;;;;;;32.20;20.02;;;9.40;99.90;;;;;;5141445;27;20054;-71
2022/11/23 00:21:11;;;;;;;28.92;19.60;;;9.20;99.90;;;;;;5141105;27;20039;-71
2022/11/23 00:23:37;;;;;;;29.52;19.75;;;9.20;99.90;;;;;;5140848;27;20047;-71
2022/11/23 00:26:04;;;;;;;36.92;21.65;;;9.20;99.90;;;;;;5141160;27;20070;-71
2022/11/23 00:28:29;;;;;;;40.20;21.80;;;9.20;99.90;;;;;;5140880;27;20114;-71
2022/11/23 00:30:55;;;;;;;35.58;21.75;;;9.30;99.90;;;;;;5141156;27;20080;-71
2022/11/23 00:33:21;;;;;;;35.55;21.52;;;9.40;99.90;;;;;;5140824;27;20043;-71
2022/11/23 00:35:47;;;;;;;34.33;19.90;;;9.50;99.90;;;;;;5141099;27;20069;-71
2022/11/23 00:38:13;;;;;;;33.38;21.02;;;9.50;99.90;;;;;;5141114;27;20043;-71
2022/11/23 00:40:38;;;;;;;35.42;21.30;;;9.50;99.90;;;;;;5140846;27;20035;-71
2022/11/23 00:43:04;;;;;;;36.38;21.02;;;9.30;99.90;;;;;;5140919;27;20031;-71
2022/11/23 00:45:30;;;;;;;33.10;20.50;;;9.30;99.90;;;;;;5140702;27;20031;-71
2022/11/23 00:47:55;;;;;;;46.08;23.52;;;9.30;99.90;;;;;;5122556;27;20412;-71
2022/11/23 00:50:21;;;;;;;32.08;19.55;;;9.30;99.90;;;;;;5122456;27;20047;-71
2022/11/23 00:52:47;;;;;;;29.52;19.58;;;9.40;99.90;;;;;;5122266;27;20076;-72
2022/11/23 00:55:12;;;;;;;38.60;23.17;;;9.30;99.90;;;;;;5122344;27;20070;-71
2022/11/23 00:57:38;;;;;;;37.08;21.30;;;9.30;99.90;;;;;;5140368;27;20047;-71
2022/11/23 01:00:05;;;;;;;35.22;20.27;;;9.40;99.90;;;;;;5141339;27;20049;-71
2022/11/23 01:02:34;;;;;;;30.35;19.45;;;9.30;99.90;;;;;;5140734;27;20148;-71
2022/11/23 01:05:01;;;;;;;31.88;19.92;;;9.40;99.90;;;;;;5140299;27;20076;-71
2022/11/23 01:07:29;;;;;;;27.42;17.48;;;9.40;99.90;;;;;;5140392;27;20365;-71
2022/11/23 01:09:55;;;;;;;26.50;18.92;;;9.50;99.90;;;;;;5140338;27;20039;-74
2022/11/23 01:12:21;;;;;;;31.63;18.35;;;9.40;99.90;;;;;;5140381;27;20381;-71
2022/11/23 01:14:46;;;;;;;31.40;19.60;;;9.40;99.90;;;;;;5139997;27;20039;-71
2022/11/23 01:17:12;;;;;;;37.03;21.55;;;9.40;99.90;;;;;;5140092;27;20039;-71
2022/11/23 01:19:38;;;;;;;34.38;18.95;;;9.40;99.90;;;;;;5140139;27;20036;-71
2022/11/23 01:22:03;;;;;;;28.05;19.70;;;9.30;99.90;;;;;;5139173;27;20416;-71
2022/11/23 01:24:29;;;;;;;31.70;18.83;;;9.20;99.90;;;;;;5121569;27;20397;-72
2022/11/23 01:26:55;;;;;;;40.25;19.15;;;9.10;99.90;;;;;;5140116;27;20035;-71
2022/11/23 01:29:22;;;;;;;29.63;18.98;;;9.20;99.90;;;;;;5140132;27;20038;-71
2022/11/23 01:31:47;;;;;;;29.23;18.50;;;9.20;99.90;;;;;;5140001;27;20043;-71
2022/11/23 01:34:14;;;;;;;35.72;19.83;;;9.30;99.90;;;;;;5139351;27;20140;-71
2022/11/23 01:36:41;;;;;;;26.65;17.00;;;9.40;99.90;;;;;;5139889;27;20050;-71
2022/11/23 01:39:06;;;;;;;36.28;19.15;;;9.40;99.90;;;;;;5139855;27;20043;-71
2022/11/23 01:41:36;;;;;;;25.38;17.10;;;9.50;99.90;;;;;;5139663;27;20035;-71
2022/11/23 01:44:21;;;;;;;31.83;19.55;;;9.40;99.90;;;;;;5121756;27;20043;-71
2022/11/23 01:46:47;;;;;;;27.92;17.02;;;9.40;99.90;;;;;;5139425;27;20096;-71
2022/11/23 01:49:13;;;;;;;28.60;17.88;;;9.30;99.90;;;;;;5139432;27;20159;-71
2022/11/23 01:51:42;;;;;;;27.15;17.30;;;9.30;99.90;;;;;;5139444;27;20122;-71
2022/11/23 01:54:12;;;;;;;34.67;19.85;;;9.30;99.90;;;;;;5139609;27;20086;-71
2022/11/23 01:56:43;;;;;;;30.25;18.42;;;9.20;99.90;;;;;;5139354;27;20117;-71
2022/11/23 01:59:14;;;;;;;27.25;16.00;;;9.30;99.90;;;;;;5139546;27;20118;-71
2022/11/23 02:01:39;;;;;;;29.48;17.55;;;9.30;99.90;;;;;;5139170;27;20043;-71
2022/11/23 02:04:07;;;;;;;26.95;18.35;;;9.20;99.90;;;;;;5138761;27;20031;-71
2022/11/23 02:06:33;;;;;;;28.58;17.63;;;9.20;99.90;;;;;;5139391;27;20035;-71
2022/11/23 02:08:59;;;;;;;29.33;18.75;;;9.20;99.90;;;;;;5139105;27;20118;-72
2022/11/23 02:11:25;;;;;;;25.13;17.33;;;9.20;99.90;;;;;;5139110;27;20110;-71
2022/11/23 02:13:51;;;;;;;30.38;19.05;;;9.20;99.90;;;;;;5120698;27;20046;-72
2022/11/23 02:16:17;;;;;;;36.42;20.42;;;9.30;99.90;;;;;;5139025;27;20047;-72
2022/11/23 02:18:46;;;;;;;31.75;18.60;;;9.40;99.90;;;;;;5120757;27;20035;-71
2022/11/23 02:21:12;;;;;;;32.75;18.85;;;9.50;99.90;;;;;;5138875;27;20328;-71
2022/11/23 02:24:05;;;;;;;31.92;19.40;;;9.40;99.90;;;;;;5138588;27;20051;-71
2022/11/23 02:26:33;;;;;;;32.78;19.63;;;9.50;99.90;;;;;;5138941;27;20095;-72
2022/11/23 02:29:07;;;;;;;27.65;18.40;;;9.50;99.90;;;;;;5138930;27;20043;-72
2022/11/23 02:31:33;;;;;;;33.38;19.50;;;9.30;99.90;;;;;;5138935;27;20047;-71
2022/11/23 02:33:59;;;;;;;36.05;20.45;;;9.30;99.90;;;;;;5138391;27;20056;-71
2022/11/23 02:36:27;;;;;;;34.92;19.17;;;9.40;99.90;;;;;;5138598;27;20376;-71
2022/11/23 02:38:55;;;;;;;28.73;19.08;;;9.30;99.90;;;;;;5139276;27;20438;-71
2022/11/23 02:41:21;;;;;;;29.80;19.35;;;9.40;99.90;;;;;;5120090;27;20039;-71
2022/11/23 02:43:51;;;;;;;32.63;18.77;;;9.30;99.90;;;;;;5138434;27;20045;-71
2022/11/23 02:46:17;;;;;;;41.70;19.83;;;9.20;99.90;;;;;;5138443;27;20042;-72
2022/11/23 02:48:42;;;;;;;39.10;20.55;;;9.30;99.90;;;;;;5103302;27;20043;-71
2022/11/23 02:51:08;;;;;;;29.00;18.35;;;9.40;99.90;;;;;;5120150;27;20045;-71
2022/11/23 02:53:34;;;;;;;28.10;18.40;;;9.30;99.90;;;;;;5138470;27;20082;-71
2022/11/23 02:55:59;;;;;;;30.25;18.40;;;9.40;99.90;;;;;;5138234;27;20035;-71
2022/11/23 02:58:28;;;;;;;34.10;20.17;;;9.40;99.90;;;;;;5138327;27;20122;-71
2022/11/23 03:00:54;;;;;;;30.17;18.98;;;9.50;99.90;;;;;;5138186;27;20383;-71
2022/11/23 03:03:19;;;;;;;33.30;19.25;;;9.50;99.90;;;;;;5137995;27;20466;-71
2022/11/23 03:05:45;;;;;;;33.75;19.27;;;9.50;99.90;;;;;;5138081;27;20027;-71
2022/11/23 03:08:10;;;;;;;25.48;18.48;;;9.50;99.90;;;;;;5138247;27;20297;-71
2022/11/23 03:10:36;;;;;;;34.38;20.30;;;9.60;99.90;;;;;;5137807;27;20096;-71
2022/11/23 03:13:02;;;;;;;30.38;18.27;;;9.60;99.90;;;;;;5137938;27;20162;-71
2022/11/23 03:15:27;;;;;;;38.33;21.00;;;9.40;99.90;;;;;;5137768;27;20160;-71
2022/11/23 03:17:53;;;;;;;31.15;19.15;;;9.50;99.90;;;;;;5137964;27;20035;-71
2022/11/23 03:20:19;;;;;;;28.30;16.50;;;9.50;99.90;;;;;;5137665;27;20081;-71
2022/11/23 03:22:45;;;;;;;27.27;17.77;;;9.30;99.90;;;;;;5138004;27;20360;-71
2022/11/23 03:25:11;;;;;;;27.15;17.52;;;9.50;99.90;;;;;;5137264;27;20066;-71
2022/11/23 03:27:38;;;;;;;27.85;17.00;;;9.50;99.90;;;;;;5137474;27;20038;-71
2022/11/23 03:30:06;;;;;;;31.80;16.92;;;9.50;99.90;;;;;;5137757;27;20050;-71
2022/11/23 03:32:31;;;;;;;33.65;18.23;;;9.60;99.90;;;;;;5137858;27;20064;-71
2022/11/23 03:34:57;;;;;;;24.02;16.38;;;9.50;99.90;;;;;;5119337;28;20042;-71
2022/11/23 03:37:24;;;;;;;28.48;17.63;;;9.40;99.90;;;;;;5137581;27;20463;-71
2022/11/23 03:39:49;;;;;;;30.17;18.58;;;9.50;99.90;;;;;;5137719;27;20354;-71
2022/11/23 03:42:15;;;;;;;30.35;16.80;;;9.50;99.90;;;;;;5119236;28;20046;-71
2022/11/23 03:44:41;;;;;;;43.42;18.90;;;9.50;99.90;;;;;;5137200;27;20035;-71
2022/11/23 03:47:06;;;;;;;30.95;18.30;;;9.50;99.90;;;;;;5137367;28;20088;-71
2022/11/23 03:49:32;;;;;;;37.50;18.42;;;9.50;99.90;;;;;;5137495;28;20031;-71
2022/11/23 03:51:58;;;;;;;25.38;17.30;;;9.50;99.90;;;;;;5137711;28;20039;-71
2022/11/23 03:54:23;;;;;;;33.80;18.27;;;9.50;99.90;;;;;;5137373;28;20444;-71
2022/11/23 03:56:49;;;;;;;29.83;18.10;;;9.40;99.90;;;;;;5137601;28;20038;-71
2022/11/23 03:59:14;;;;;;;35.47;20.55;;;9.30;99.90;;;;;;5137426;28;20136;-71
2022/11/23 04:01:40;;;;;;;31.55;18.02;;;9.50;99.90;;;;;;5137394;28;20047;-71
2022/11/23 04:04:06;;;;;;;29.40;17.20;;;9.50;99.90;;;;;;5118841;28;20230;-71
2022/11/23 04:06:31;;;;;;;35.95;18.55;;;9.40;99.90;;;;;;5137519;28;20038;-76
2022/11/23 04:08:57;;;;;;;33.80;18.25;;;9.40;99.90;;;;;;5118981;28;20039;-71
2022/11/23 04:11:23;;;;;;;31.05;18.02;;;9.40;99.90;;;;;;5137483;28;20084;-71
2022/11/23 04:13:48;;;;;;;36.83;21.42;;;9.40;99.90;;;;;;5125821;28;20327;-71
2022/11/23 04:16:14;;;;;;;36.88;19.65;;;9.40;99.90;;;;;;5116826;28;20040;-72
2022/11/23 04:18:40;;;;;;;40.58;21.05;;;9.50;99.90;;;;;;5116662;28;20057;-71
2022/11/23 04:21:05;;;;;;;39.17;20.80;;;9.50;99.90;;;;;;5116433;28;20046;-71
2022/11/23 04:23:31;;;;;;;34.60;19.80;;;9.50;99.90;;;;;;5116647;28;20118;-71
2022/11/23 04:25:56;;;;;;;33.55;18.98;;;9.60;99.90;;;;;;5116757;28;20042;-71
2022/11/23 04:28:22;;;;;;;39.45;19.35;;;9.60;99.90;;;;;;5116555;28;20046;-72
2022/11/23 04:30:48;;;;;;;40.20;19.30;;;9.60;99.90;;;;;;5116534;28;20095;-71
2022/11/23 04:33:13;;;;;;;48.33;22.88;;;9.80;99.90;;;;;;5116229;28;20043;-71
2022/11/23 04:35:39;;;;;;;39.33;20.55;;;9.90;99.90;;;;;;5116507;28;20432;-71
2022/11/23 04:38:05;;;;;;;35.03;19.58;;;9.80;99.90;;;;;;5116365;28;20036;-73
2022/11/23 04:40:30;;;;;;;38.45;21.40;;;9.70;99.90;;;;;;5116576;28;20041;-71
2022/11/23 04:42:57;;;;;;;40.72;21.45;;;9.70;99.90;;;;;;5116478;28;20128;-71
2022/11/23 04:45:23;;;;;;;40.10;21.67;;;9.70;99.90;;;;;;5116714;28;20086;-71
2022/11/23 04:47:49;;;;;;;39.80;22.35;;;9.70;99.90;;;;;;5116333;28;20436;-71
2022/11/23 04:50:15;;;;;;;45.83;23.13;;;9.70;99.90;;;;;;5098468;28;20044;-71
2022/11/23 04:52:41;;;;;;;47.70;22.92;;;9.70;99.90;;;;;;5116325;28;20088;-71
2022/11/23 04:55:07;;;;;;;41.83;22.00;;;9.70;99.90;;;;;;5116241;28;20039;-71
2022/11/23 04:57:32;;;;;;;40.35;22.33;;;9.70;99.90;;;;;;5101231;28;20092;-71
2022/11/23 04:59:58;;;;;;;52.75;23.33;;;9.50;99.90;;;;;;5119768;28;20123;-71
2022/11/23 05:02:24;;;;;;;48.72;23.95;;;9.50;99.90;;;;;;5119771;28;20051;-71
2022/11/23 05:04:50;;;;;;;43.45;22.63;;;9.50;99.90;;;;;;5119632;28;20044;-71
2022/11/23 05:07:15;;;;;;;40.08;22.15;;;9.60;99.90;;;;;;5084940;28;20092;-72
2022/11/23 05:09:42;;;;;;;43.75;23.75;;;9.50;99.90;;;;;;5119860;28;20071;-71
2022/11/23 05:12:08;;;;;;;41.13;22.63;;;9.50;99.90;;;;;;5119802;28;20043;-71
2022/11/23 05:14:34;;;;;;;43.00;23.23;;;9.40;99.90;;;;;;5119804;28;20047;-71
2022/11/23 05:16:59;;;;;;;46.42;24.00;;;9.30;99.90;;;;;;5119618;28;20054;-71
2022/11/23 05:19:25;;;;;;;50.50;24.23;;;9.40;99.90;;;;;;5101369;28;20035;-71
2022/11/23 05:21:50;;;;;;;46.28;23.80;;;9.40;99.90;;;;;;5138582;27;20035;-72
2022/11/23 05:24:16;;;;;;;46.47;25.00;;;9.40;99.90;;;;;;5139813;27;20066;-71
2022/11/23 05:26:42;;;;;;;45.20;24.17;;;9.50;99.90;;;;;;5139882;27;20112;-71
2022/11/23 05:29:07;;;;;;;52.90;24.85;;;9.50;99.90;;;;;;5140211;27;20039;-71
2022/11/23 05:31:33;;;;;;;44.28;22.38;;;9.50;99.90;;;;;;5140053;27;20101;-71
2022/11/23 05:33:59;;;;;;;39.42;23.20;;;9.60;99.90;;;;;;5139334;27;20118;-71
2022/11/23 05:36:24;;;;;;;42.88;23.10;;;9.60;99.90;;;;;;5140026;27;20039;-71
2022/11/23 05:38:51;;;;;;;48.53;24.70;;;9.40;99.90;;;;;;5121488;27;20120;-71
2022/11/23 05:41:16;;;;;;;42.72;23.10;;;9.50;99.90;;;;;;5139710;27;20039;-71
2022/11/23 05:43:42;;;;;;;47.25;23.42;;;9.60;99.90;;;;;;5139633;27;20031;-71
2022/11/23 05:46:08;;;;;;;41.42;23.25;;;9.60;99.90;;;;;;5139854;27;20046;-71
2022/11/23 05:48:33;;;;;;;49.20;24.23;;;9.60;99.90;;;;;;5139486;27;20039;-71
2022/11/23 05:50:59;;;;;;;47.35;24.83;;;9.70;99.90;;;;;;5139357;27;20038;-73
2022/11/23 05:53:25;;;;;;;43.58;23.85;;;9.80;99.90;;;;;;5139483;27;20043;-71
2022/11/23 05:55:50;;;;;;;45.20;24.05;;;9.70;99.90;;;;;;5139611;27;20093;-71
2022/11/23 05:58:16;;;;;;;40.63;22.23;;;9.70;99.90;;;;;;5139391;27;20062;-71
2022/11/23 06:00:42;;;;;;;45.17;24.80;;;9.70;99.90;;;;;;5139153;27;20156;-71
2022/11/23 06:03:07;;;;;;;48.83;24.60;;;9.50;99.90;;;;;;5138925;27;20039;-71
2022/11/23 06:05:33;;;;;;;45.35;24.20;;;9.40;99.90;;;;;;5139182;27;20043;-71
2022/11/23 06:07:59;;;;;;;42.30;23.40;;;9.50;99.90;;;;;;5138873;27;20035;-71
2022/11/23 06:10:24;;;;;;;47.50;23.67;;;9.50;99.90;;;;;;5138982;27;20114;-71
2022/11/23 06:12:51;;;;;;;36.85;20.67;;;9.50;99.90;;;;;;5139303;27;20160;-71
2022/11/23 06:15:17;;;;;;;45.05;22.95;;;9.40;99.90;;;;;;5139409;27;20039;-71
2022/11/23 06:17:43;;;;;;;38.50;21.48;;;9.50;99.90;;;;;;5119993;27;20043;-71
2022/11/23 06:20:09;;;;;;;39.75;20.00;;;9.50;99.90;;;;;;5138992;27;20039;-71
2022/11/23 06:22:35;;;;;;;40.67;21.00;;;9.50;99.90;;;;;;5120815;27;20338;-71
2022/11/23 06:25:01;;;;;;;35.50;19.42;;;9.50;99.90;;;;;;5138784;27;20057;-71
2022/11/23 06:27:26;;;;;;;37.78;20.20;;;9.50;99.90;;;;;;5138826;27;20078;-71
2022/11/23 06:29:52;;;;;;;37.67;21.00;;;9.50;99.90;;;;;;5138606;27;20038;-71
2022/11/23 06:32:18;;;;;;;35.75;20.10;;;9.40;99.90;;;;;;5138746;27;20035;-71
2022/11/23 06:34:43;;;;;;;31.80;17.70;;;9.50;99.90;;;;;;5138231;27;20039;-71
2022/11/23 06:37:09;;;;;;;38.03;19.80;;;9.60;99.90;;;;;;5138662;27;20035;-72
2022/11/23 06:39:35;;;;;;;36.63;19.35;;;9.70;99.90;;;;;;5138638;27;20091;-71
2022/11/23 06:42:01;;;;;;;42.42;20.52;;;9.50;99.90;;;;;;5138679;27;20543;-71
2022/11/23 06:44:26;;;;;;;37.92;19.58;;;9.60;99.90;;;;;;5138522;27;20042;-71
2022/11/23 06:46:52;;;;;;;33.35;18.40;;;9.70;99.90;;;;;;5120499;27;20053;-71
2022/11/23 06:49:19;;;;;;;30.58;18.48;;;9.60;99.90;;;;;;5138276;27;20057;-71
2022/11/23 06:51:45;;;;;;;33.22;17.80;;;9.50;99.90;;;;;;5138452;27;20058;-71
2022/11/23 06:54:11;;;;;;;31.60;17.95;;;9.60;99.90;;;;;;5138322;27;20423;-71
2022/11/23 06:56:37;;;;;;;32.20;17.85;;;9.50;99.90;;;;;;5138347;27;20076;-71
2022/11/23 06:59:02;;;;;;;29.65;16.63;;;9.50;99.90;;;;;;5138165;27;20410;-71
2022/11/23 07:01:28;;;;;;;27.33;16.77;;;9.60;99.90;;;;;;5138258;27;20118;-71
2022/11/23 07:03:54;;;;;;;29.92;16.17;;;9.60;99.90;;;;;;5137895;27;20042;-71
2022/11/23 07:06:19;;;;;;;29.50;16.25;;;9.60;99.90;;;;;;5119869;27;20042;-71
2022/11/23 07:08:45;;;;;;;25.38;15.10;;;9.50;99.90;;;;;;5138282;27;20032;-71
2022/11/23 07:11:11;;;;;;;30.20;15.60;;;9.60;99.90;;;;;;5137835;27;20039;-71
2022/11/23 07:13:37;;;;;;;32.10;15.25;;;9.60;99.90;;;;;;5137872;27;20075;-71
2022/11/23 07:16:03;;;;;;;27.38;14.35;;;9.50;99.90;;;;;;5138021;27;20070;-71
2022/11/23 07:18:29;;;;;;;24.33;14.32;;;9.40;99.90;;;;;;5137404;27;20125;-71
2022/11/23 07:20:58;;;;;;;23.80;14.35;;;9.40;99.90;;;;;;5137804;27;20042;-71
2022/11/23 07:23:25;;;;;;;28.60;14.23;;;9.30;99.90;;;;;;5119270;27;20047;-71
2022/11/23 07:25:50;;;;;;;26.20;13.38;;;9.20;99.90;;;;;;5137850;27;20050;-71
2022/11/23 07:28:16;;;;;;;24.05;14.48;;;9.20;99.90;;;;;;5137643;27;20035;-71
2022/11/23 07:30:42;;;;;;;28.27;14.18;;;9.20;99.90;;;;;;5137692;27;20075;-71
2022/11/23 07:33:10;;;;;;;27.77;12.93;;;9.20;99.90;;;;;;5137675;27;20043;-71
2022/11/23 07:35:37;;;;;;;21.35;12.93;;;9.10;99.90;;;;;;5137516;27;20438;-71
2022/11/23 07:38:06;;;;;;;23.92;12.63;;;9.20;99.90;;;;;;5137784;27;20052;-71
2022/11/23 07:40:32;;;;;;;26.60;13.20;;;9.20;99.90;;;;;;5137601;27;20118;-72
2022/11/23 07:42:59;;;;;;;24.90;11.88;;;9.30;99.90;;;;;;5137562;27;20037;-71
2022/11/23 07:45:26;;;;;;;20.92;11.00;;;9.20;99.90;;;;;;5137667;28;20031;-71
2022/11/23 07:48:05;;;;;;;22.00;12.15;;;9.20;99.90;;;;;;5119246;28;20441;-71
2022/11/23 07:50:32;;;;;;;22.98;11.68;;;9.40;99.90;;;;;;5119230;28;20108;-70
2022/11/23 07:52:57;;;;;;;25.55;12.18;;;9.40;99.90;;;;;;5119366;28;20054;-70
2022/11/23 07:55:24;;;;;;;21.08;11.10;;;9.40;99.90;;;;;;5137228;28;20040;-69
2022/11/23 07:57:53;;;;;;;22.42;11.57;;;9.40;99.90;;;;;;5137434;28;20035;-69
2022/11/23 08:00:20;;;;;;;27.23;11.43;;;9.40;99.90;;;;;;5137509;28;20052;-69
2022/11/23 08:02:46;;;;;;;23.60;11.10;;;9.40;99.90;;;;;;5137410;28;20327;-68
2022/11/23 08:05:12;;;;;;;28.20;10.90;;;9.40;99.90;;;;;;5118796;28;20035;-69
2022/11/23 08:07:38;;;;;;;22.02;10.07;;;9.50;99.90;;;;;;5137166;28;20062;-69
2022/11/23 08:10:04;;;;;;;20.95;10.52;;;9.40;99.90;;;;;;5137296;28;20042;-69
2022/11/23 08:12:30;;;;;;;16.42;9.57;;;9.30;99.90;;;;;;5137187;28;20136;-68
2022/11/23 08:14:56;;;;;;;22.33;9.27;;;9.30;99.90;;;;;;5119282;28;20130;-69
2022/11/23 08:17:21;;;;;;;22.67;9.32;;;9.30;99.90;;;;;;5137464;28;20335;-68
2022/11/23 08:19:47;;;;;;;17.63;8.57;;;9.30;99.90;;;;;;5137723;28;20080;-68
2022/11/23 08:22:13;;;;;;;22.13;9.32;;;9.40;99.90;;;;;;5118863;28;20057;-68
2022/11/23 08:24:38;;;;;;;21.08;9.10;;;9.40;99.90;;;;;;5119156;28;20047;-68
2022/11/23 08:27:04;;;;;;;22.45;8.82;;;9.40;99.90;;;;;;5137190;28;20039;-68
2022/11/23 08:29:30;;;;;;;22.30;9.60;;;9.50;99.90;;;;;;5118987;27;20042;-70
2022/11/23 08:31:55;;;;;;;25.23;8.75;;;9.40;99.90;;;;;;5140779;27;20039;-69
2022/11/23 08:34:21;;;;;;;24.08;8.93;;;9.50;99.90;;;;;;5140552;27;20126;-69
2022/11/23 08:36:47;;;;;;;20.08;9.13;;;9.40;99.90;;;;;;5140910;27;20043;-68
2022/11/23 08:39:14;;;;;;;16.67;8.77;;;9.40;99.90;;;;;;5122825;27;20039;-69
2022/11/23 08:41:40;;;;;;;16.52;8.50;;;9.50;99.90;;;;;;5140851;27;20103;-69
2022/11/23 08:44:08;;;;;;;25.15;8.85;;;9.50;99.90;;;;;;5140952;27;20039;-70
2022/11/23 08:46:34;;;;;;;20.85;8.90;;;9.50;99.90;;;;;;5141189;27;20034;-69
2022/11/23 08:49:00;;;;;;;16.08;7.88;;;9.40;99.90;;;;;;5140902;27;20539;-69
2022/11/23 08:51:25;;;;;;;16.65;8.38;;;9.50;99.90;;;;;;5140743;27;20111;-69
2022/11/23 08:53:51;;;;;;;16.15;8.10;;;9.70;99.90;;;;;;5105469;27;20046;-69
2022/11/23 08:56:17;;;;;;;17.65;7.57;;;9.60;99.90;;;;;;5140490;27;20039;-69
2022/11/23 08:58:43;;;;;;;21.85;7.75;;;9.50;99.90;;;;;;5140826;27;20035;-69
2022/11/23 09:01:10;;;;;;;21.08;8.15;;;9.50;99.90;;;;;;5122428;27;20092;-69
2022/11/23 09:03:37;;;;;;;21.40;8.70;;;9.60;99.90;;;;;;5121951;27;20043;-69
2022/11/23 09:06:02;;;;;;;17.80;8.23;;;9.60;99.90;;;;;;5140582;27;20088;-70
2022/11/23 09:08:28;;;;;;;15.10;8.02;;;9.50;99.90;;;;;;5140588;27;20039;-70
2022/11/23 09:10:57;;;;;;;23.33;8.27;;;9.70;99.90;;;;;;5122032;27;20078;-69
2022/11/23 09:13:23;;;;;;;19.88;7.68;;;9.60;99.90;;;;;;5140548;27;20074;-69
2022/11/23 09:15:48;;;;;;;21.92;8.18;;;9.50;99.90;;;;;;5140157;27;20078;-70
2022/11/23 09:18:14;;;;;;;22.95;7.50;;;9.60;99.90;;;;;;5140261;27;20043;-69
2022/11/23 09:20:40;;;;;;;18.65;7.88;;;9.60;99.90;;;;;;5140309;27;20039;-69
2022/11/23 09:23:05;;;;;;;20.45;7.68;;;9.50;99.90;;;;;;5140037;27;20423;-69
2022/11/23 09:25:31;;;;;;;19.10;7.72;;;9.60;99.90;;;;;;5139956;27;20466;-69
2022/11/23 09:28:01;;;;;;;15.90;7.85;;;9.80;99.90;;;;;;5139883;27;20047;-68
2022/11/23 09:30:27;;;;;;;19.27;7.95;;;9.80;99.90;;;;;;5140037;27;20088;-68
2022/11/23 09:32:56;;;;;;;20.75;7.68;;;9.90;99.90;;;;;;5139798;27;20358;-70
2022/11/23 09:35:21;;;;;;;14.55;6.78;;;9.90;99.90;;;;;;5121768;27;20324;-71
2022/11/23 09:37:47;;;;;;;17.98;6.55;;;9.80;99.90;;;;;;5139740;27;20039;-71
2022/11/23 09:40:16;;;;;;;22.02;7.80;;;9.70;99.90;;;;;;5139814;27;20407;-68
2022/11/23 09:42:58;;;;;;;14.95;6.80;;;9.90;99.90;;;;;;5138689;27;20087;-67
2022/11/23 09:45:53;;;;;;;18.95;6.60;;;9.90;99.90;;;;;;5121442;27;20051;-67
2022/11/23 09:48:34;;;;;;;21.40;6.65;;;10.00;99.90;;;;;;5110699;27;20043;-67
2022/11/23 09:51:20;;;;;;;17.77;6.80;;;10.00;99.90;;;;;;5129814;27;20068;-67
2022/11/23 09:53:52;;;;;;;18.52;6.38;;;10.10;99.90;;;;;;5118635;28;20115;-68
2022/11/23 09:56:31;;;;;;;19.02;6.93;;;10.00;99.90;;;;;;5113715;27;20084;-67
2022/11/23 09:59:00;;;;;;;18.58;6.40;;;10.00;99.90;;;;;;5121384;27;20035;-68
2022/11/23 10:01:26;;;;;;;16.33;5.78;;;9.90;99.90;;;;;;5120860;27;20047;-69
2022/11/23 10:03:54;;;;;;;17.35;6.43;;;9.90;99.90;;;;;;5119631;27;20443;-68
2022/11/23 10:06:21;;;;;;;19.90;6.13;;;10.00;99.90;;;;;;5134416;27;20050;-69
2022/11/23 10:09:11;;;;;;;19.75;6.35;;;10.00;99.90;;;;;;5138481;27;20437;-68
2022/11/23 10:11:58;;;;;;;21.48;6.07;;;10.20;99.90;;;;;;5138912;27;20049;-68
2022/11/23 10:14:30;;;;;;;16.58;5.72;;;10.10;99.90;;;;;;5131777;27;20045;-68
2022/11/23 10:17:16;;;;;;;19.48;5.90;;;10.10;99.90;;;;;;5124575;27;20118;-68
2022/11/23 10:20:01;;;;;;;18.90;5.90;;;10.00;99.90;;;;;;5102394;27;20047;-68
2022/11/23 10:22:33;;;;;;;20.67;6.88;;;10.00;99.90;;;;;;5138599;27;20035;-68
2022/11/23 10:25:03;;;;;;;17.90;6.57;;;10.10;99.90;;;;;;5120236;27;20055;-67
2022/11/23 10:27:29;;;;;;;21.35;6.15;;;10.10;99.90;;;;;;5136543;27;20418;-69
2022/11/23 10:29:57;;;;;;;16.52;4.90;;;10.10;99.90;;;;;;5134602;27;20640;-70
2022/11/23 10:32:41;;;;;;;24.38;5.47;;;10.10;99.90;;;;;;5127118;27;20375;-73
2022/11/23 10:35:22;;;;;;;14.93;5.18;;;10.00;99.90;;;;;;5099037;28;20047;-71
2022/11/23 10:37:47;;;;;;;19.48;5.30;;;10.10;99.90;;;;;;5116851;28;20066;-71
2022/11/23 10:40:21;;;;;;;19.92;5.82;;;10.20;99.90;;;;;;5100262;28;20432;-70
2022/11/23 10:42:56;;;;;;;21.13;5.90;;;10.20;99.90;;;;;;5099740;28;20077;-70
2022/11/23 10:45:26;;;;;;;14.90;5.20;;;10.30;99.90;;;;;;5117905;28;20035;-70
2022/11/23 10:47:58;;;;;;;18.48;5.13;;;10.20;99.90;;;;;;5134042;27;20423;-71
2022/11/23 10:50:36;;;;;;;13.95;4.93;;;10.20;99.90;;;;;;5119916;27;20046;-70
2022/11/23 10:53:05;;;;;;;19.02;5.10;;;10.30;99.90;;;;;;5138485;27;20367;-71
2022/11/23 10:55:56;;;;;;;18.50;4.82;;;10.20;99.90;;;;;;5138284;27;20046;-71
2022/11/23 10:58:33;;;;;;;14.20;4.60;;;10.20;99.90;;;;;;5128825;27;20367;-71
2022/11/23 11:01:05;;;;;;;19.42;5.07;;;10.20;99.90;;;;;;5120080;27;20039;-71
2022/11/23 11:03:33;;;;;;;24.67;5.32;;;10.30;99.90;;;;;;5119571;27;20027;-71
2022/11/23 11:06:00;;;;;;;13.68;4.78;;;10.20;99.90;;;;;;5138032;27;20316;-72
2022/11/23 11:08:32;;;;;;;20.63;5.20;;;10.10;99.90;;;;;;5144227;27;20087;-71
2022/11/23 11:11:28;;;;;;;19.90;4.57;;;10.20;99.90;;;;;;5141909;27;20317;-71
2022/11/23 11:14:05;;;;;;;18.93;5.40;;;10.10;99.90;;;;;;5116949;27;20112;-71
2022/11/23 11:16:34;;;;;;;17.63;5.15;;;10.20;99.90;;;;;;5133300;27;20046;-69
2022/11/23 11:19:19;;;;;;;18.45;4.90;;;10.30;99.90;;;;;;5110719;28;20412;-67
2022/11/23 11:21:46;;;;;;;;;;;10.20;99.90;;;;;;5101148;27;20119;-69
2022/11/23 11:24:19;;;;;;;21.23;4.80;;;10.40;99.90;;;;;;5105155;28;19960;-72
2022/11/23 11:26:50;;;;;;;17.25;4.63;;;10.40;99.90;;;;;;5096937;28;20040;-70
2022/11/23 11:29:26;;;;;;;11.85;3.55;;;10.30;99.90;;;;;;5114372;28;20423;-70
2022/11/23 11:31:59;;;;;;;20.15;4.68;;;10.20;99.90;;;;;;5116214;28;20447;-68
2022/11/23 11:34:31;;;;;;;19.40;4.20;;;10.30;99.90;;;;;;5116415;28;20126;-69
2022/11/23 11:37:08;;;;;;;11.43;3.88;;;10.30;99.90;;;;;;5117201;28;20040;-69
2022/11/23 11:39:57;;;;;;;14.45;4.85;;;10.20;99.90;;;;;;5113296;28;20039;-70
2022/11/23 11:42:33;;;;;;;18.17;4.38;;;10.20;99.90;;;;;;5101903;28;20035;-70
2022/11/23 11:45:01;;;;;;;16.27;3.88;;;10.50;99.90;;;;;;5106205;28;20117;-69
2022/11/23 11:47:42;;;;;;;17.02;3.85;;;10.60;99.90;;;;;;5126565;28;20385;-68
2022/11/23 11:50:43;;;;;;;16.92;4.82;;;11.00;99.90;;;;;;5112234;28;20036;-69
2022/11/23 11:53:17;;;;;;;15.70;4.05;;;11.70;99.90;;;;;;5083703;28;20054;-67
2022/11/23 11:55:47;;;;;;;15.75;4.53;;;12.30;99.90;;;;;;5098589;28;20515;-69
2022/11/23 11:58:15;;;;;;;13.38;3.92;;;12.30;99.90;;;;;;5095206;28;20046;-68
2022/11/23 12:00:41;;;;;;;14.27;3.30;;;12.50;99.90;;;;;;5095976;28;20051;-68
2022/11/23 12:03:36;;;;;;;13.55;3.60;;;13.00;99.90;;;;;;5096334;28;20040;-68
2022/11/23 12:06:17;;;;;;;17.08;3.35;;;13.00;99.90;;;;;;5099106;28;20040;-67
2022/11/23 12:08:46;;;;;;;21.98;3.63;;;13.00;99.90;;;;;;5099167;28;20046;-67
2022/11/23 12:11:12;;;;;;;11.20;2.92;;;13.30;99.90;;;;;;5100755;28;20036;-68
2022/11/23 12:13:42;;;;;;;16.33;3.42;;;13.40;99.90;;;;;;5100302;28;20051;-68
2022/11/23 12:16:32;;;;;;;12.88;3.30;;;13.30;99.70;;;;;;5100541;28;20126;-68
2022/11/23 12:19:01;;;;;;;15.30;3.25;;;13.20;99.90;;;;;;5100217;28;20048;-69
2022/11/23 12:21:29;;;;;;;12.98;3.53;;;13.80;99.70;;;;;;5100124;28;20102;-69
2022/11/23 12:24:11;;;;;;;13.65;2.75;;;14.00;99.40;;;;;;5105565;28;20047;-69
2022/11/23 12:26:55;;;;;;;15.60;2.50;;;14.30;99.10;;;;;;5120640;28;20040;-69
2022/11/23 12:29:41;;;;;;;8.63;2.30;;;14.40;98.50;;;;;;5120710;28;20042;-69
2022/11/23 12:32:07;;;;;;;;;;;14.40;98.40;;;;;;5121375;28;20073;-69
2022/11/23 12:34:58;;;;;;;15.33;2.60;;;14.80;98.80;;;;;;5109255;27;20219;-70
2022/11/23 12:37:46;;;;;;;11.55;2.20;;;14.80;98.30;;;;;;5104598;28;20432;-69
2022/11/23 12:40:35;;;;;;;14.57;3.13;;;15.40;97.50;;;;;;5127601;27;20039;-69
2022/11/23 12:43:12;;;;;;;11.15;2.20;;;15.10;97.70;;;;;;5122646;27;20039;-70
2022/11/23 12:45:49;;;;;;;11.77;2.42;;;15.20;97.40;;;;;;5122261;27;20047;-70